Time;durP1;ratioP1;P1;durP2;ratioP2;P2;SDS_P1;SDS_P2;PMS_P1;PMS_P2;Temp;Humidity;BMP_temperature;BMP_pressure;BME280_temperature;BME280_humidity;BME280_pressure;Samples;Min_cycle;Max_cycle;Signal;HPM_P1;HPM_P2
2024/02/06 00:02:20;;;;;;;8.73;5.50;;;;;;;5.62;100.00;99102.88;5117679;27;20678;-54
2024/02/06 00:04:48;;;;;;;9.40;6.30;;;;;;;5.65;100.00;99099.44;5121785;27;20214;-54
2024/02/06 00:07:16;;;;;;;9.30;5.83;;;;;;;5.71;100.00;99104.53;5112870;27;20210;-54
2024/02/06 00:09:56;;;;;;;10.53;5.67;;;;;;;5.78;100.00;99096.81;5117407;27;20199;-55
2024/02/06 00:12:24;;;;;;;12.27;4.70;;;;;;;5.87;100.00;99100.13;5111643;27;20905;-54
2024/02/06 00:14:53;;;;;;;10.87;4.97;;;;;;;5.93;100.00;99084.75;5117147;27;20275;-60
2024/02/06 00:17:22;;;;;;;10.47;5.13;;;;;;;6.02;100.00;99075.31;5111773;27;20235;-54
2024/02/06 00:19:50;;;;;;;11.23;5.40;;;;;;;6.11;100.00;99068.41;5117432;27;20203;-54
2024/02/06 00:22:18;;;;;;;9.07;5.30;;;;;;;6.17;100.00;99082.00;5119654;27;20207;-55
2024/02/06 00:24:48;;;;;;;13.53;5.60;;;;;;;6.25;100.00;99095.56;5113188;27;20195;-56
2024/02/06 00:27:17;;;;;;;11.33;6.10;;;;;;;6.30;100.00;99080.19;5113296;28;20206;-56
2024/02/06 00:29:45;;;;;;;17.57;6.87;;;;;;;6.35;100.00;99090.38;5112170;27;20650;-59
2024/02/06 00:32:12;;;;;;;13.23;5.97;;;;;;;6.39;100.00;99097.16;5116859;27;20736;-56
2024/02/06 00:34:42;;;;;;;11.93;6.07;;;;;;;6.40;100.00;99097.13;5111561;28;20693;-55
2024/02/06 00:37:10;;;;;;;10.00;6.57;;;;;;;6.43;100.00;99093.69;5112931;28;20343;-55
2024/02/06 00:39:38;;;;;;;14.17;6.90;;;;;;;6.47;100.00;99087.69;5112302;28;20199;-54
2024/02/06 00:42:06;;;;;;;13.37;7.40;;;;;;;6.47;100.00;99082.56;5102945;28;20613;-56
2024/02/06 00:44:34;;;;;;;16.67;7.47;;;;;;;6.49;100.00;99076.56;5112610;28;20212;-56
2024/02/06 00:47:02;;;;;;;19.07;6.53;;;;;;;6.52;100.00;99075.72;5112799;27;20237;-54
2024/02/06 00:49:30;;;;;;;14.03;7.07;;;;;;;6.54;100.00;99073.97;5107517;28;20196;-55
2024/02/06 00:51:59;;;;;;;14.57;6.90;;;;;;;6.54;100.00;99059.44;5113067;27;20200;-55
2024/02/06 00:54:27;;;;;;;18.23;7.60;;;;;;;6.56;100.00;99072.25;5112649;27;20196;-55
2024/02/06 00:56:55;;;;;;;10.70;6.77;;;;;;;6.54;100.00;99079.91;5112818;28;20554;-56
2024/02/06 00:59:23;;;;;;;11.90;7.17;;;;;;;6.55;100.00;99065.41;5113214;27;20196;-55
2024/02/06 01:01:51;;;;;;;17.47;7.97;;;;;;;6.55;100.00;99073.09;5112745;27;20282;-62
2024/02/06 01:04:19;;;;;;;15.23;7.10;;;;;;;6.55;100.00;99070.53;5112806;27;20204;-55
2024/02/06 01:06:47;;;;;;;17.07;8.07;;;;;;;6.54;100.00;99067.13;5110271;28;20200;-54
2024/02/06 01:09:17;;;;;;;16.13;8.83;;;;;;;6.54;100.00;99056.88;5114713;27;20203;-57
2024/02/06 01:11:45;;;;;;;15.47;8.77;;;;;;;6.56;100.00;99071.41;5113817;27;20204;-54
2024/02/06 01:14:13;;;;;;;15.63;7.40;;;;;;;6.56;100.00;99069.69;5111670;27;20246;-62
2024/02/06 01:16:40;;;;;;;15.87;9.10;;;;;;;6.58;100.00;99072.22;5119269;27;20315;-57
2024/02/06 01:19:08;;;;;;;15.90;7.77;;;;;;;6.58;100.00;99075.63;5121359;27;20291;-59
2024/02/06 01:21:36;;;;;;;16.17;8.00;;;;;;;6.60;100.00;99068.78;5110713;28;20677;-56
2024/02/06 01:24:08;;;;;;;17.90;7.93;;;;;;;6.62;100.00;99061.91;5103853;27;20270;-56
2024/02/06 01:26:37;;;;;;;14.60;8.13;;;;;;;6.62;100.00;99069.59;5109765;28;20203;-54
2024/02/06 01:29:05;;;;;;;12.50;8.27;;;;;;;6.65;100.00;99066.16;5111765;28;20211;-59
2024/02/06 01:31:33;;;;;;;21.20;8.23;;;;;;;6.67;100.00;99072.13;5113615;28;20738;-55
2024/02/06 01:34:01;;;;;;;15.00;6.93;;;;;;;6.69;100.00;99068.66;5120275;27;20218;-56
2024/02/06 01:36:29;;;;;;;12.97;6.93;;;;;;;6.69;100.00;99058.41;5116678;27;20755;-54
2024/02/06 01:38:58;;;;;;;12.70;6.17;;;;;;;6.72;100.00;99065.22;5112021;28;20212;-54
2024/02/06 01:41:26;;;;;;;15.50;6.60;;;;;;;6.72;98.98;99068.63;5106981;28;20196;-54
2024/02/06 01:43:55;;;;;;;11.50;6.10;;;;;;;6.75;99.30;99052.41;5111648;27;20637;-54
2024/02/06 01:46:24;;;;;;;9.13;5.83;;;;;;;6.77;98.45;99060.88;5129029;28;20231;-59
2024/02/06 01:48:52;;;;;;;9.23;5.40;;;;;;;6.78;97.98;99068.56;5112364;28;20234;-55
2024/02/06 01:51:22;;;;;;;10.87;5.33;;;;;;;6.77;98.18;99056.66;5120488;28;20278;-55
2024/02/06 01:53:55;;;;;;;10.23;5.40;;;;;;;6.80;97.09;99057.47;5112188;28;20680;-61
2024/02/06 01:56:23;;;;;;;9.23;5.63;;;;;;;6.83;97.16;99054.88;5113673;28;20228;-59
2024/02/06 01:58:52;;;;;;;10.00;6.00;;;;;;;6.83;95.72;99044.63;5111814;28;20200;-63
2024/02/06 02:01:23;;;;;;;10.43;4.70;;;;;;;6.85;95.80;99066.78;5116684;28;20203;-54
2024/02/06 02:03:54;;;;;;;12.27;5.07;;;;;;;6.86;95.02;99065.91;5114227;28;20206;-57
2024/02/06 02:06:24;;;;;;;10.47;5.03;;;;;;;6.88;95.23;99064.16;5119437;27;20196;-55
2024/02/06 02:08:52;;;;;;;10.07;5.23;;;;;;;6.90;94.27;99064.16;5116175;28;20206;-55
2024/02/06 02:11:20;;;;;;;13.87;5.43;;;;;;;6.89;94.07;99060.75;5116573;27;20237;-57
2024/02/06 02:13:50;;;;;;;10.60;4.63;;;;;;;6.91;95.04;99069.25;5118859;27;20200;-55
2024/02/06 02:16:19;;;;;;;9.23;4.87;;;;;;;6.91;94.19;99079.50;5110808;28;20215;-53
2024/02/06 02:18:50;;;;;;;6.70;4.43;;;;;;;6.90;95.18;99048.81;5114638;27;20232;-57
2024/02/06 02:21:20;;;;;;;11.63;4.43;;;;;;;6.87;95.91;99053.97;5121480;27;20242;-55
2024/02/06 02:23:48;;;;;;;8.93;4.47;;;;;;;6.83;95.10;99047.19;5124530;27;20206;-55
2024/02/06 02:26:20;;;;;;;10.50;4.30;;;;;;;6.85;95.72;99045.44;5118581;27;20219;-55
2024/02/06 02:28:48;;;;;;;8.33;3.97;;;;;;;6.84;94.64;99030.94;5123280;27;20203;-57
2024/02/06 02:31:17;;;;;;;7.90;3.80;;;;;;;6.84;94.64;99044.59;5115882;27;20203;-56
2024/02/06 02:33:46;;;;;;;10.03;3.93;;;;;;;6.88;94.23;99042.84;5114124;27;20235;-55
2024/02/06 02:36:15;;;;;;;8.77;4.27;;;;;;;6.88;93.60;99053.91;5115309;27;20236;-59
2024/02/06 02:38:44;;;;;;;5.83;3.80;;;;;;;6.90;93.04;99041.97;5116077;27;20585;-58
2024/02/06 02:41:12;;;;;;;8.23;3.23;;;;;;;6.92;91.63;99039.38;5115491;27;20738;-62
2024/02/06 02:43:40;;;;;;;6.57;3.00;;;;;;;6.95;92.35;99039.34;5111912;27;20200;-58
2024/02/06 02:46:08;;;;;;;7.03;3.00;;;;;;;6.99;90.49;99043.53;5120185;27;20200;-57
2024/02/06 02:48:36;;;;;;;5.93;2.37;;;;;;;7.01;90.31;99050.34;5121005;27;20292;-58
2024/02/06 02:51:05;;;;;;;3.17;2.40;;;;;;;7.04;91.18;99062.28;5128436;27;20294;-56
2024/02/06 02:53:33;;;;;;;4.80;2.83;;;;;;;7.06;89.88;99041.75;5115905;27;20204;-59
2024/02/06 02:56:02;;;;;;;3.60;2.00;;;;;;;7.07;90.15;99046.88;5114198;27;20659;-55
2024/02/06 02:58:30;;;;;;;3.47;2.10;;;;;;;7.10;89.54;99059.63;5111147;28;20220;-54
2024/02/06 03:00:58;;;;;;;3.07;1.80;;;;;;;7.12;89.10;99047.66;5126456;27;20199;-57
2024/02/06 03:03:27;;;;;;;2.97;2.10;;;;;;;7.14;88.83;99053.59;5117352;27;20196;-59
2024/02/06 03:05:55;;;;;;;4.50;2.10;;;;;;;7.15;87.40;99045.06;5121551;27;20682;-56
2024/02/06 03:08:23;;;;;;;2.67;1.40;;;;;;;7.20;87.13;99060.34;5114525;28;20200;-57
2024/02/06 03:10:51;;;;;;;4.27;1.80;;;;;;;7.22;87.03;99058.63;5114403;28;20204;-55
2024/02/06 03:13:22;;;;;;;2.43;1.67;;;;;;;7.25;86.75;99035.50;5113240;27;21559;-56
2024/02/06 03:15:50;;;;;;;3.13;1.77;;;;;;;7.25;87.02;99033.81;5116203;27;20208;-58
2024/02/06 03:18:18;;;;;;;5.50;1.70;;;;;;;7.28;87.41;99055.13;5118814;27;20231;-58
2024/02/06 03:20:46;;;;;;;1.57;1.43;;;;;;;7.28;86.61;99057.69;5117303;27;20207;-59
2024/02/06 03:23:15;;;;;;;6.00;1.60;;;;;;;7.30;86.00;99048.25;5113866;28;20277;-57
2024/02/06 03:25:43;;;;;;;3.03;1.87;;;;;;;7.32;87.12;99052.47;5117714;27;20203;-59
2024/02/06 03:28:11;;;;;;;4.33;1.43;;;;;;;7.32;86.91;99059.31;5119751;27;20192;-57
2024/02/06 03:30:41;;;;;;;6.30;1.90;;;;;;;7.31;86.13;99048.22;5105747;28;20272;-58
2024/02/06 03:33:09;;;;;;;4.73;1.63;;;;;;;7.31;86.50;99053.34;5113805;28;20196;-58
2024/02/06 03:35:39;;;;;;;3.80;1.77;;;;;;;7.34;86.71;99047.34;5114352;27;20205;-58
2024/02/06 03:38:07;;;;;;;2.47;1.60;;;;;;;7.32;85.60;99037.09;5121552;27;20219;-56
2024/02/06 03:40:35;;;;;;;3.47;1.70;;;;;;;7.34;85.37;99034.53;5114380;27;20641;-61
2024/02/06 03:43:04;;;;;;;6.50;2.20;;;;;;;7.35;86.52;99059.28;5113776;27;20204;-55
2024/02/06 03:45:32;;;;;;;4.50;1.60;;;;;;;7.35;86.42;99039.63;5115718;27;20623;-53
2024/02/06 03:48:01;;;;;;;3.87;1.60;;;;;;;7.36;86.53;99053.28;5110921;27;20251;-51
2024/02/06 03:50:30;;;;;;;5.90;2.00;;;;;;;7.34;85.70;99037.94;5115223;27;20199;-51
2024/02/06 03:52:58;;;;;;;3.93;1.70;;;;;;;7.33;85.92;99061.88;5113549;27;20212;-51
2024/02/06 03:55:26;;;;;;;4.53;1.63;;;;;;;7.31;86.03;99053.34;5115307;27;20266;-53
2024/02/06 03:57:55;;;;;;;2.90;1.77;;;;;;;7.33;86.21;99048.19;5117691;27;20238;-63
2024/02/06 04:00:23;;;;;;;3.73;1.73;;;;;;;7.31;86.56;99037.97;5116027;27;20200;-51
2024/02/06 04:02:51;;;;;;;2.20;1.63;;;;;;;7.35;86.70;99049.03;5110219;27;20575;-53
2024/02/06 04:05:20;;;;;;;3.27;1.53;;;;;;;7.35;86.27;99034.50;5120975;27;20821;-53
2024/02/06 04:07:48;;;;;;;7.33;2.00;;;;;;;7.37;86.01;99057.56;5114024;27;20611;-52
2024/02/06 04:10:17;;;;;;;3.60;1.60;;;;;;;7.39;86.12;99050.69;5114367;27;20200;-56
2024/02/06 04:12:45;;;;;;;4.37;1.93;;;;;;;7.40;86.38;99067.75;5113222;27;20204;-52
2024/02/06 04:15:13;;;;;;;3.07;1.97;;;;;;;7.38;87.24;99060.09;5114659;27;20292;-53
2024/02/06 04:17:41;;;;;;;2.63;1.70;;;;;;;7.37;87.52;99037.91;5113224;27;20784;-53
2024/02/06 04:20:09;;;;;;;3.37;1.80;;;;;;;7.37;87.93;99047.31;5113121;27;20617;-56
2024/02/06 04:22:39;;;;;;;5.00;2.10;;;;;;;7.37;87.66;99035.34;5116976;27;20204;-52
2024/02/06 04:25:08;;;;;;;3.63;2.00;;;;;;;7.39;87.59;99060.94;5118416;27;20268;-54
2024/02/06 04:27:36;;;;;;;3.57;2.40;;;;;;;7.38;88.26;99039.59;5107305;27;20192;-54
2024/02/06 04:30:06;;;;;;;3.77;2.10;;;;;;;7.38;87.81;99033.63;5112857;28;20200;-54
2024/02/06 04:32:34;;;;;;;4.77;2.20;;;;;;;7.39;88.02;99035.31;5114398;27;20207;-55
2024/02/06 04:35:02;;;;;;;4.50;2.23;;;;;;;7.39;89.12;99032.75;5115708;27;20221;-60
2024/02/06 04:37:31;;;;;;;4.97;2.93;;;;;;;7.37;88.25;99037.06;5114351;27;20640;-54
2024/02/06 04:40:00;;;;;;;4.10;2.83;;;;;;;7.38;89.04;99038.75;5115284;27;20199;-53
2024/02/06 04:42:29;;;;;;;4.50;2.50;;;;;;;7.35;88.80;98990.94;5111248;27;20208;-55
2024/02/06 04:44:56;;;;;;;4.33;2.40;;;;;;;7.37;89.19;99031.94;5112374;28;20298;-58
2024/02/06 04:47:25;;;;;;;4.27;3.10;;;;;;;7.37;90.38;99031.94;5112932;27;20208;-53
2024/02/06 04:49:53;;;;;;;5.30;2.83;;;;;;;7.36;90.16;99043.88;5113316;27;20200;-54
2024/02/06 04:52:22;;;;;;;6.83;2.83;;;;;;;7.36;90.64;99036.19;5112450;27;20342;-56
2024/02/06 04:54:50;;;;;;;7.13;3.47;;;;;;;7.36;91.76;99032.78;5108680;27;20207;-53
2024/02/06 04:57:19;;;;;;;4.50;3.10;;;;;;;7.32;91.48;99026.84;5116303;27;20269;-54
2024/02/06 04:59:48;;;;;;;5.37;3.03;;;;;;;7.31;92.25;99032.00;5118014;27;20211;-52
2024/02/06 05:02:16;;;;;;;4.53;3.23;;;;;;;7.29;92.86;99023.50;5112773;27;20232;-53
2024/02/06 05:04:45;;;;;;;5.93;4.10;;;;;;;7.28;92.60;99016.69;5117035;27;20234;-55
2024/02/06 05:07:13;;;;;;;6.40;3.30;;;;;;;7.24;92.86;99026.97;5113814;27;20238;-53
2024/02/06 05:09:41;;;;;;;4.70;3.53;;;;;;;7.24;94.13;99016.72;5112853;28;20699;-53
2024/02/06 05:12:09;;;;;;;7.60;4.00;;;;;;;7.24;94.77;99033.81;5110260;27;20241;-58
2024/02/06 05:14:40;;;;;;;6.80;3.80;;;;;;;7.24;94.71;99019.28;5110059;27;20644;-53
2024/02/06 05:17:08;;;;;;;8.53;4.43;;;;;;;7.23;95.01;99019.31;5112270;28;20718;-53
2024/02/06 05:19:41;;;;;;;7.83;4.67;;;;;;;7.21;95.53;99021.88;5115068;27;20216;-53
2024/02/06 05:22:10;;;;;;;10.10;4.83;;;;;;;7.20;95.38;99014.22;5120345;27;20658;-55
2024/02/06 05:24:38;;;;;;;7.93;5.00;;;;;;;7.15;96.98;99010.91;5111209;27;20204;-52
2024/02/06 05:27:06;;;;;;;7.53;5.23;;;;;;;7.11;97.57;99004.13;5112406;28;20294;-53
2024/02/06 05:29:35;;;;;;;7.37;4.97;;;;;;;7.09;97.51;99019.50;5114861;27;20298;-52
2024/02/06 05:32:05;;;;;;;10.23;6.03;;;;;;;7.06;98.42;99016.13;5108515;28;20200;-51
2024/02/06 05:34:34;;;;;;;12.63;7.00;;;;;;;7.04;99.55;99016.19;5111863;27;20206;-51
2024/02/06 05:37:03;;;;;;;10.53;6.60;;;;;;;7.04;99.70;99008.50;5109896;28;20283;-53
2024/02/06 05:39:31;;;;;;;10.20;6.53;;;;;;;7.03;100.00;99006.78;5115110;27;20208;-53
2024/02/06 05:41:59;;;;;;;11.70;7.33;;;;;;;7.00;100.00;99015.38;5112101;28;20204;-55
2024/02/06 05:44:27;;;;;;;10.13;6.50;;;;;;;7.00;100.00;99033.28;5111826;28;20211;-55
2024/02/06 05:46:55;;;;;;;10.57;6.67;;;;;;;6.96;100.00;99013.72;5118488;28;20199;-53
2024/02/06 05:49:25;;;;;;;11.37;7.37;;;;;;;6.97;100.00;99014.56;5109000;28;20283;-55
2024/02/06 05:51:53;;;;;;;14.03;7.70;;;;;;;6.95;100.00;98999.19;5110406;28;20227;-54
2024/02/06 05:54:21;;;;;;;11.43;7.60;;;;;;;6.96;100.00;99010.31;5111057;28;20290;-51
2024/02/06 05:56:49;;;;;;;13.60;7.60;;;;;;;6.96;100.00;99000.06;5114832;27;20230;-54
2024/02/06 05:59:17;;;;;;;12.30;7.40;;;;;;;6.94;100.00;98991.56;5111627;28;20216;-55
2024/02/06 06:01:44;;;;;;;12.80;7.90;;;;;;;6.95;100.00;99008.59;5111971;28;20204;-53
2024/02/06 06:04:12;;;;;;;9.70;7.83;;;;;;;6.95;100.00;98999.19;5111468;28;20202;-53
2024/02/06 06:06:42;;;;;;;13.63;8.13;;;;;;;6.95;100.00;99001.75;5108363;28;20208;-54
2024/02/06 06:09:10;;;;;;;11.83;8.17;;;;;;;6.95;100.00;98993.25;5114119;28;20200;-55
2024/02/06 06:11:38;;;;;;;13.70;8.50;;;;;;;6.95;100.00;98998.34;5111366;28;20208;-54
2024/02/06 06:14:06;;;;;;;11.40;7.73;;;;;;;6.96;100.00;99005.19;5110189;28;20208;-55
2024/02/06 06:16:34;;;;;;;9.30;7.13;;;;;;;6.96;100.00;99002.63;5105422;28;20200;-58
2024/02/06 06:19:02;;;;;;;13.40;8.20;;;;;;;6.96;100.00;99007.75;5122124;28;20303;-57
2024/02/06 06:21:30;;;;;;;11.43;7.60;;;;;;;6.96;100.00;98994.94;5109334;28;20192;-57
2024/02/06 06:23:59;;;;;;;12.53;7.77;;;;;;;6.98;100.00;99018.81;5111250;28;20548;-57
2024/02/06 06:26:27;;;;;;;17.77;8.40;;;;;;;6.96;100.00;99000.06;5106538;28;20203;-56
2024/02/06 06:28:55;;;;;;;13.27;8.03;;;;;;;6.96;100.00;99015.44;5110839;28;20278;-55
2024/02/06 06:31:23;;;;;;;11.30;8.70;;;;;;;6.93;100.00;99020.59;5107462;28;20204;-54
2024/02/06 06:33:51;;;;;;;10.53;7.80;;;;;;;6.92;100.00;99029.13;5111182;28;20208;-54
2024/02/06 06:36:19;;;;;;;12.80;8.00;;;;;;;6.92;100.00;99012.06;5111562;28;20246;-53
2024/02/06 06:38:47;;;;;;;12.23;7.43;;;;;;;6.92;100.00;99017.19;5105611;28;20550;-60
2024/02/06 06:41:17;;;;;;;11.70;7.77;;;;;;;6.94;100.00;99023.13;5110230;28;20611;-54
2024/02/06 06:43:46;;;;;;;13.87;8.17;;;;;;;6.93;100.00;99036.81;5108834;28;20249;-56
2024/02/06 06:46:14;;;;;;;14.80;8.63;;;;;;;6.94;100.00;99032.53;5120163;28;20218;-56
2024/02/06 06:48:42;;;;;;;11.97;7.63;;;;;;;6.92;99.44;99024.00;5110584;28;20603;-56
2024/02/06 06:51:10;;;;;;;12.20;8.23;;;;;;;6.91;100.00;99022.31;5115517;27;20289;-59
2024/02/06 06:53:38;;;;;;;13.50;8.13;;;;;;;6.90;100.00;99016.34;5115117;27;20200;-56
2024/02/06 06:56:15;;;;;;;15.67;8.17;;;;;;;6.91;100.00;99032.56;5112843;28;20204;-60
2024/02/06 06:58:45;;;;;;;15.30;8.97;;;;;;;6.92;100.00;99036.81;5116064;27;20235;-68
2024/02/06 07:01:13;;;;;;;13.80;8.57;;;;;;;6.94;100.00;99037.66;5116101;27;20207;-56
2024/02/06 07:03:41;;;;;;;11.93;7.80;;;;;;;6.93;98.39;99030.84;5114232;27;20287;-55
2024/02/06 07:06:09;;;;;;;11.97;7.53;;;;;;;6.94;98.16;99024.84;5117543;27;20677;-54
2024/02/06 07:08:38;;;;;;;12.10;8.40;;;;;;;6.95;98.48;99035.06;5112208;28;20287;-54
2024/02/06 07:11:06;;;;;;;10.67;7.33;;;;;;;6.95;98.01;99032.50;5115191;27;20206;-60
2024/02/06 07:13:34;;;;;;;11.07;7.67;;;;;;;6.95;96.64;99031.66;5111885;28;20232;-55
2024/02/06 07:16:04;;;;;;;10.10;7.53;;;;;;;6.94;97.97;99019.72;5108823;28;20200;-53
2024/02/06 07:18:32;;;;;;;9.50;7.63;;;;;;;6.96;96.55;99026.53;5115028;27;20263;-59
2024/02/06 07:21:00;;;;;;;12.20;7.20;;;;;;;6.95;97.45;99006.03;5114065;27;20208;-54
2024/02/06 07:23:27;;;;;;;12.57;6.27;;;;;;;6.98;96.54;99008.56;5111657;27;20570;-53
2024/02/06 07:25:55;;;;;;;11.00;7.40;;;;;;;7.00;96.50;99030.75;5114737;27;20201;-52
2024/02/06 07:28:23;;;;;;;14.37;7.57;;;;;;;7.04;96.23;99017.91;5122070;27;20531;-56
2024/02/06 07:30:52;;;;;;;12.33;6.83;;;;;;;7.04;96.08;99030.69;5123198;27;20642;-59
2024/02/06 07:33:21;;;;;;;11.23;7.00;;;;;;;7.00;96.50;99028.19;5119709;27;20583;-51
2024/02/06 07:35:49;;;;;;;9.83;7.40;;;;;;;7.00;96.51;99020.50;5121119;27;20219;-55
2024/02/06 07:38:17;;;;;;;9.57;6.80;;;;;;;7.01;95.41;99024.75;5114329;27;20200;-54
2024/02/06 07:40:45;;;;;;;18.87;8.00;;;;;;;7.02;95.90;99023.84;5113338;28;20207;-53
2024/02/06 07:43:13;;;;;;;12.10;7.00;;;;;;;7.02;95.97;99031.53;5114956;27;20199;-52
2024/02/06 07:45:47;;;;;;;8.57;6.67;;;;;;;7.02;95.94;99020.47;5110765;27;20253;-55
2024/02/06 07:48:15;;;;;;;10.20;7.23;;;;;;;7.05;95.87;99020.41;5112889;28;20231;-57
2024/02/06 07:50:47;;;;;;;9.83;6.17;;;;;;;7.05;95.04;99025.53;5117299;27;20200;-55
2024/02/06 07:53:17;;;;;;;12.37;6.77;;;;;;;7.08;95.06;99015.25;5124578;27;20195;-53
2024/02/06 07:55:45;;;;;;;9.23;6.10;;;;;;;7.10;94.37;99016.06;5115194;27;20642;-55
2024/02/06 07:58:13;;;;;;;8.37;5.80;;;;;;;7.12;94.92;99019.47;5113689;27;20196;-55
2024/02/06 08:00:41;;;;;;;8.57;5.97;;;;;;;7.14;92.90;99030.56;5119714;27;20212;-58
2024/02/06 08:03:08;;;;;;;9.87;5.50;;;;;;;7.16;93.28;99033.09;5115422;27;20282;-55
2024/02/06 08:05:36;;;;;;;13.00;6.10;;;;;;;7.18;92.99;99027.06;5105812;27;20252;-56
2024/02/06 08:08:07;;;;;;;7.03;4.97;;;;;;;7.19;91.78;99022.78;5112895;28;20200;-56
2024/02/06 08:10:36;;;;;;;9.87;5.53;;;;;;;7.20;92.82;99021.91;5117565;27;20200;-54
2024/02/06 08:13:04;;;;;;;7.20;5.30;;;;;;;7.19;92.13;99028.75;5102993;28;20207;-54
2024/02/06 08:15:32;;;;;;;9.67;5.10;;;;;;;7.19;92.51;99028.75;5110229;27;20279;-58
2024/02/06 08:18:00;;;;;;;7.53;5.30;;;;;;;7.21;91.90;99024.44;5109247;28;20239;-59
2024/02/06 08:20:28;;;;;;;7.90;5.03;;;;;;;7.24;91.69;99042.34;5114897;27;20242;-56
2024/02/06 08:22:56;;;;;;;7.13;4.70;;;;;;;7.23;92.84;99039.81;5122334;27;20282;-56
2024/02/06 08:25:25;;;;;;;8.13;4.63;;;;;;;7.23;92.00;99037.25;5114589;27;20223;-62
2024/02/06 08:27:54;;;;;;;6.13;4.30;;;;;;;7.26;91.68;99045.75;5112352;27;20191;-54
2024/02/06 08:30:27;;;;;;;6.83;4.57;;;;;;;7.24;92.16;99041.50;5113163;27;20196;-54
2024/02/06 08:32:54;;;;;;;9.53;5.17;;;;;;;7.25;92.11;99038.94;5114004;27;20206;-55
2024/02/06 08:35:22;;;;;;;7.80;4.87;;;;;;;7.26;92.40;99029.53;5118233;27;20204;-54
2024/02/06 08:37:51;;;;;;;6.20;4.50;;;;;;;7.27;92.13;99046.59;5108968;27;20558;-54
2024/02/06 08:40:19;;;;;;;6.83;4.30;;;;;;;7.28;90.94;99022.66;5115131;27;20239;-55
2024/02/06 08:42:49;;;;;;;9.30;4.67;;;;;;;7.30;91.41;99040.56;5106964;28;20523;-52
2024/02/06 08:45:17;;;;;;;7.77;4.40;;;;;;;7.32;91.69;99028.56;5109426;27;20204;-54
2024/02/06 08:47:45;;;;;;;7.50;4.50;;;;;;;7.33;91.72;99037.94;5111517;27;20208;-54
2024/02/06 08:50:14;;;;;;;7.40;4.50;;;;;;;7.34;90.66;99032.81;5110831;27;20196;-56
2024/02/06 08:52:43;;;;;;;7.63;4.40;;;;;;;7.35;90.68;99049.88;5112734;27;20669;-55
2024/02/06 08:55:11;;;;;;;9.07;5.03;;;;;;;7.35;91.14;99047.31;5116506;27;20210;-56
2024/02/06 08:57:39;;;;;;;9.37;4.50;;;;;;;7.35;91.27;99046.47;5114879;27;20708;-59
2024/02/06 09:00:11;;;;;;;6.70;4.40;;;;;;;7.33;91.93;99041.38;5117511;27;20222;-56
2024/02/06 09:02:40;;;;;;;8.90;4.70;;;;;;;7.32;92.51;99046.50;5112312;27;20602;-55
2024/02/06 09:05:08;;;;;;;7.17;4.80;;;;;;;7.25;92.22;99033.81;5115219;27;20203;-54
2024/02/06 09:07:36;;;;;;;7.00;5.07;;;;;;;7.26;92.02;99040.63;5111513;27;20204;-54
2024/02/06 09:10:06;;;;;;;7.17;4.37;;;;;;;7.26;92.62;99050.03;5114845;27;20659;-54
2024/02/06 09:12:34;;;;;;;6.63;4.50;;;;;;;7.26;92.88;99032.94;5111612;27;20591;-53
2024/02/06 09:15:02;;;;;;;9.80;4.70;;;;;;;7.29;91.79;99055.13;5112810;27;20254;-54
2024/02/06 09:17:31;;;;;;;9.33;5.03;;;;;;;7.26;92.64;99040.63;5114626;27;20230;-56
2024/02/06 09:19:59;;;;;;;7.67;4.50;;;;;;;7.26;91.77;99045.75;5108523;27;20200;-61
2024/02/06 09:22:28;;;;;;;8.20;4.77;;;;;;;7.24;92.41;99042.34;5119002;27;20203;-53
2024/02/06 09:24:56;;;;;;;8.33;5.03;;;;;;;7.26;91.65;99029.53;5126479;27;20195;-56
2024/02/06 09:27:24;;;;;;;10.10;5.27;;;;;;;7.26;91.94;99030.38;5129519;27;20198;-55
2024/02/06 09:29:51;;;;;;;8.97;4.60;;;;;;;7.32;91.41;99023.44;5112861;27;20200;-54
2024/02/06 09:32:19;;;;;;;8.23;4.50;;;;;;;7.33;92.10;99040.50;5110013;27;20211;-58
2024/02/06 09:34:49;;;;;;;5.83;4.50;;;;;;;7.33;92.06;99035.38;5115743;27;20241;-56
2024/02/06 09:37:17;;;;;;;6.77;4.40;;;;;;;7.35;91.44;99036.22;5114139;27;20196;-56
2024/02/06 09:39:45;;;;;;;4.97;4.47;;;;;;;7.35;91.12;99038.78;5116657;27;20203;-56
2024/02/06 09:42:15;;;;;;;7.53;4.27;;;;;;;7.36;91.62;99023.38;5108640;27;20562;-58
2024/02/06 09:44:45;;;;;;;6.73;4.43;;;;;;;7.38;89.66;99031.06;5113353;27;20646;-57
2024/02/06 09:47:13;;;;;;;9.93;4.27;;;;;;;7.40;89.42;99029.31;5116813;27;20207;-54
2024/02/06 09:49:45;;;;;;;5.70;4.03;;;;;;;7.43;88.18;99024.13;5106604;28;20215;-58
2024/02/06 09:52:15;;;;;;;8.50;4.13;;;;;;;7.46;88.22;99022.38;5109788;28;20208;-56
2024/02/06 09:54:44;;;;;;;6.30;3.53;;;;;;;7.49;88.00;99042.00;5118523;28;20654;-58
2024/02/06 09:57:17;;;;;;;12.87;4.50;;;;;;;7.53;86.58;99040.22;5117496;28;20221;-55
2024/02/06 09:59:46;;;;;;;5.70;3.83;;;;;;;7.56;87.71;99045.31;5111056;28;20238;-57
2024/02/06 10:02:15;;;;;;;8.93;3.80;;;;;;;7.58;86.54;99029.00;5113043;28;20234;-57
2024/02/06 10:04:44;;;;;;;6.83;3.67;;;;;;;7.63;86.81;99022.13;5118675;28;20619;-59
2024/02/06 10:07:14;;;;;;;10.47;4.07;;;;;;;7.63;85.97;99039.22;5113043;28;20273;-54
2024/02/06 10:09:46;;;;;;;3.87;3.03;;;;;;;7.66;86.40;99036.63;5112239;28;20719;-54
2024/02/06 10:12:14;;;;;;;5.40;3.60;;;;;;;7.68;85.25;99037.41;5115696;28;20203;-57
2024/02/06 10:14:43;;;;;;;7.27;3.80;;;;;;;7.70;85.71;99020.31;5112692;28;20207;-56
2024/02/06 10:17:13;;;;;;;7.63;4.23;;;;;;;7.72;85.97;99031.38;5115289;27;20235;-51
2024/02/06 10:19:41;;;;;;;7.17;3.77;;;;;;;7.72;85.58;99004.00;5112033;27;20204;-53
2024/02/06 10:22:12;;;;;;;6.43;3.70;;;;;;;7.75;84.36;99016.78;5115930;28;20315;-53
2024/02/06 10:24:42;;;;;;;6.03;3.83;;;;;;;7.77;84.63;99023.59;5112926;27;20772;-53
2024/02/06 10:27:10;;;;;;;7.00;3.40;;;;;;;7.79;85.39;99022.72;5116882;27;20212;-52
2024/02/06 10:29:38;;;;;;;4.63;3.07;;;;;;;7.79;83.07;99015.00;5125460;27;20192;-53
2024/02/06 10:32:24;;;;;;;6.90;3.50;;;;;;;7.82;84.60;99006.44;5122663;27;20200;-57
2024/02/06 10:35:00;;;;;;;4.33;3.17;;;;;;;7.84;83.30;98999.53;5114618;27;20204;-54
2024/02/06 10:37:29;;;;;;;5.93;3.23;;;;;;;7.84;84.57;98999.53;5124534;27;20199;-56
2024/02/06 10:40:00;;;;;;;8.13;3.80;;;;;;;7.85;82.76;99006.38;5114627;27;20203;-56
2024/02/06 10:42:28;;;;;;;6.17;3.83;;;;;;;7.85;82.96;98989.28;5119541;27;20761;-52
2024/02/06 10:45:17;;;;;;;6.13;3.70;;;;;;;7.85;83.46;99001.25;5124076;27;20204;-57
2024/02/06 10:47:56;;;;;;;5.53;3.77;;;;;;;7.85;83.20;99008.94;5114662;27;20208;-55
2024/02/06 10:50:26;;;;;;;5.97;3.60;;;;;;;7.85;83.58;98991.84;5105002;27;20670;-60
2024/02/06 10:52:54;;;;;;;5.90;3.23;;;;;;;7.87;84.76;98991.78;5116138;27;20198;-55
2024/02/06 10:55:24;;;;;;;6.27;3.23;;;;;;;7.86;83.61;98987.56;5116022;27;20245;-57
2024/02/06 10:58:00;;;;;;;4.17;3.03;;;;;;;7.86;84.31;99002.94;5110925;27;20207;-50
2024/02/06 11:00:32;;;;;;;6.37;2.97;;;;;;;7.87;84.62;98982.38;5115600;27;20218;-52
2024/02/06 11:03:05;;;;;;;5.13;3.77;;;;;;;7.89;83.42;98980.66;5111881;27;20259;-62
2024/02/06 11:05:40;;;;;;;6.37;3.67;;;;;;;7.90;84.49;99012.28;5115803;27;20204;-58
2024/02/06 11:08:13;;;;;;;9.20;3.43;;;;;;;7.85;83.70;99003.81;5113123;27;20639;-52
2024/02/06 11:10:46;;;;;;;5.30;3.80;;;;;;;7.84;83.44;99008.09;5112171;27;20690;-54
2024/02/06 11:13:24;;;;;;;6.87;3.93;;;;;;;7.85;83.43;99003.81;5114287;27;20208;-52
2024/02/06 11:15:53;;;;;;;4.47;3.37;;;;;;;7.84;83.83;98984.16;5111555;27;20709;-50
2024/02/06 11:18:27;;;;;;;6.33;3.40;;;;;;;7.82;84.39;99003.88;5119193;27;20231;-51
2024/02/06 11:20:58;;;;;;;4.73;3.50;;;;;;;7.81;84.32;98979.09;5116638;27;20208;-53
2024/02/06 11:23:26;;;;;;;5.43;3.47;;;;;;;7.81;83.69;98989.38;5113027;28;20199;-58
2024/02/06 11:25:56;;;;;;;4.33;3.47;;;;;;;7.80;85.12;98995.34;5114709;27;20204;-49
2024/02/06 11:28:25;;;;;;;5.80;3.77;;;;;;;7.80;83.75;99000.47;5109815;27;20791;-52
2024/02/06 11:30:59;;;;;;;5.17;3.40;;;;;;;7.81;84.98;98994.50;5117085;27;20558;-51
2024/02/06 11:33:30;;;;;;;5.70;3.27;;;;;;;7.83;84.01;99002.97;5109970;27;20281;-50
2024/02/06 11:36:11;;;;;;;8.40;3.47;;;;;;;7.82;84.16;98989.31;5113350;27;20755;-56
2024/02/06 11:38:39;;;;;;;7.20;3.63;;;;;;;7.84;84.50;98977.34;5116629;27;20203;-52
2024/02/06 11:41:17;;;;;;;4.10;3.20;;;;;;;7.82;83.44;98984.19;5123301;27;20627;-49
2024/02/06 11:43:47;;;;;;;5.97;3.30;;;;;;;7.88;83.32;98990.91;5105136;27;20696;-53
2024/02/06 11:46:18;;;;;;;5.30;3.17;;;;;;;7.88;82.75;98983.22;5120082;27;20212;-50